Adele Island, Australia
Current Conditions -  °F | °C
As of 2:00 PM on Thursday 29 Jan 2015 (Local Time) from YCIN Reporting Station
NA  
Wind Chill: 90°   Ceiling: NA
Heat Index: 98°   Visibility: NA
Dew Point: 73°   Wind: 6mph
Humidity: 59%   Direction: 200°SSW
Pressure: 29.65"   Gusts: NA
Location:  15.5°S, 123.15°E
Report Text: YCIN 290600Z AUTO 20005KT 070V240 //// // ////// 32/23 Q1004
Loading
Personal Weather Stations






























Interactive Weather Map New forecast layout! Learn more

10-Day Weather Forecast

Advertisements
Track Severe Weather on mobile